sensor_id;sensor_type;location;lat;lon;timestamp;pressure;altitude;pressure_sealevel;temperature;humidity
10460;BME280;54412;51.206;6.888;2023-03-05T00:01:18;101417.31;;;7.83;63.67
10460;BME280;54412;51.206;6.888;2023-03-05T00:03:44;101421.84;;;7.78;63.56
10460;BME280;54412;51.206;6.888;2023-03-05T00:06:11;101416.31;;;7.55;64.56
10460;BME280;54412;51.206;6.888;2023-03-05T00:08:37;101409.59;;;7.77;63.65
10460;BME280;54412;51.206;6.888;2023-03-05T00:11:07;101409.13;;;7.62;63.68
10460;BME280;54412;51.206;6.888;2023-03-05T00:13:35;101411.25;;;7.48;64.67
10460;BME280;54412;51.206;6.888;2023-03-05T00:16:11;101414.53;;;7.56;64.26
10460;BME280;54412;51.206;6.888;2023-03-05T00:18:37;101408.00;;;7.72;63.82
10460;BME280;54412;51.206;6.888;2023-03-05T00:21:12;101404.25;;;7.47;64.65
10460;BME280;54412;51.206;6.888;2023-03-05T00:23:41;101409.53;;;7.45;64.53
10460;BME280;54412;51.206;6.888;2023-03-05T00:26:07;101412.78;;;7.56;64.15
10460;BME280;54412;51.206;6.888;2023-03-05T00:28:32;101409.03;;;7.65;63.49
10460;BME280;54412;51.206;6.888;2023-03-05T00:30:59;101400.69;;;7.49;63.93
10460;BME280;54412;51.206;6.888;2023-03-05T00:33:26;101407.41;;;7.61;63.55
10460;BME280;54412;51.206;6.888;2023-03-05T00:35:52;101407.09;;;7.39;64.22
10460;BME280;54412;51.206;6.888;2023-03-05T00:38:18;101403.59;;;7.38;63.94
10460;BME280;54412;51.206;6.888;2023-03-05T00:40:43;101403.69;;;7.35;64.10
10460;BME280;54412;51.206;6.888;2023-03-05T00:43:10;101403.84;;;7.63;63.42
10460;BME280;54412;51.206;6.888;2023-03-05T00:45:36;101399.81;;;7.84;62.70
10460;BME280;54412;51.206;6.888;2023-03-05T00:48:02;101404.28;;;7.45;63.60
10460;BME280;54412;51.206;6.888;2023-03-05T00:50:28;101392.31;;;7.35;64.11
10460;BME280;54412;51.206;6.888;2023-03-05T00:52:54;101389.66;;;7.36;64.18
10460;BME280;54412;51.206;6.888;2023-03-05T00:55:20;101386.38;;;7.62;63.24
10460;BME280;54412;51.206;6.888;2023-03-05T00:57:46;101390.00;;;7.57;63.27
10460;BME280;54412;51.206;6.888;2023-03-05T01:00:15;101385.97;;;7.43;63.92
10460;BME280;54412;51.206;6.888;2023-03-05T01:02:41;101390.09;;;7.18;64.91
10460;BME280;54412;51.206;6.888;2023-03-05T01:05:10;101385.66;;;7.56;64.17
10460;BME280;54412;51.206;6.888;2023-03-05T01:07:36;101381.22;;;7.58;64.55
10460;BME280;54412;51.206;6.888;2023-03-05T01:10:03;101380.94;;;7.34;65.47
10460;BME280;54412;51.206;6.888;2023-03-05T01:12:29;101384.19;;;7.09;67.12
10460;BME280;54412;51.206;6.888;2023-03-05T01:14:54;101378.06;;;7.10;67.69
10460;BME280;54412;51.206;6.888;2023-03-05T01:17:20;101370.13;;;7.13;67.65
10460;BME280;54412;51.206;6.888;2023-03-05T01:19:45;101364.22;;;7.05;68.56
10460;BME280;54412;51.206;6.888;2023-03-05T01:22:11;101373.13;;;6.98;68.88
10460;BME280;54412;51.206;6.888;2023-03-05T01:24:37;101363.50;;;7.33;68.09
10460;BME280;54412;51.206;6.888;2023-03-05T01:27:03;101357.34;;;6.99;68.96
10460;BME280;54412;51.206;6.888;2023-03-05T01:29:28;101355.38;;;6.72;70.59
10460;BME280;54412;51.206;6.888;2023-03-05T01:31:54;101357.44;;;6.95;70.04
10460;BME280;54412;51.206;6.888;2023-03-05T01:34:20;101347.47;;;7.10;68.87
10460;BME280;54412;51.206;6.888;2023-03-05T01:36:46;101353.44;;;6.79;70.19
10460;BME280;54412;51.206;6.888;2023-03-05T01:39:14;101339.91;;;6.97;70.11
10460;BME280;54412;51.206;6.888;2023-03-05T01:41:40;101343.88;;;7.13;69.75
10460;BME280;54412;51.206;6.888;2023-03-05T01:44:05;101337.06;;;7.06;69.29
10460;BME280;54412;51.206;6.888;2023-03-05T01:46:37;101331.81;;;7.41;67.94
10460;BME280;54412;51.206;6.888;2023-03-05T01:52:12;101331.78;;;7.07;68.33
10460;BME280;54412;51.206;6.888;2023-03-05T01:55:07;101333.25;;;7.19;67.68
10460;BME280;54412;51.206;6.888;2023-03-05T01:57:44;101321.47;;;7.00;68.50
10460;BME280;54412;51.206;6.888;2023-03-05T02:00:16;101321.69;;;6.92;68.99
10460;BME280;54412;51.206;6.888;2023-03-05T02:02:46;101322.13;;;7.09;68.57
10460;BME280;54412;51.206;6.888;2023-03-05T02:05:29;101316.22;;;7.01;68.49
10460;BME280;54412;51.206;6.888;2023-03-05T02:07:58;101321.56;;;6.97;68.44
10460;BME280;54412;51.206;6.888;2023-03-05T02:10:28;101310.28;;;7.27;67.71
10460;BME280;54412;51.206;6.888;2023-03-05T02:13:00;101304.22;;;7.25;67.35
10460;BME280;54412;51.206;6.888;2023-03-05T02:15:28;101304.53;;;7.13;67.67
10460;BME280;54412;51.206;6.888;2023-03-05T02:17:54;101301.63;;;7.23;67.83
10460;BME280;54412;51.206;6.888;2023-03-05T02:20:24;101296.84;;;7.05;68.03
10460;BME280;54412;51.206;6.888;2023-03-05T02:22:51;101294.09;;;7.11;68.20
10460;BME280;54412;51.206;6.888;2023-03-05T02:25:24;101293.63;;;7.29;67.13
10460;BME280;54412;51.206;6.888;2023-03-05T02:30:46;101291.31;;;7.17;67.24
10460;BME280;54412;51.206;6.888;2023-03-05T02:33:16;101283.78;;;7.04;67.75
10460;BME280;54412;51.206;6.888;2023-03-05T02:35:43;101284.28;;;7.19;67.32
10460;BME280;54412;51.206;6.888;2023-03-05T02:38:12;101276.19;;;7.27;66.74
10460;BME280;54412;51.206;6.888;2023-03-05T02:40:39;101280.66;;;6.90;68.04
10460;BME280;54412;51.206;6.888;2023-03-05T02:43:05;101272.78;;;7.23;66.75
10460;BME280;54412;51.206;6.888;2023-03-05T02:45:30;101269.94;;;7.31;66.18
10460;BME280;54412;51.206;6.888;2023-03-05T02:47:56;101270.34;;;7.17;66.02
10460;BME280;54412;51.206;6.888;2023-03-05T02:50:22;101266.63;;;6.91;66.83
10460;BME280;54412;51.206;6.888;2023-03-05T02:52:49;101267.03;;;6.76;67.67
10460;BME280;54412;51.206;6.888;2023-03-05T02:55:15;101261.97;;;7.02;66.73
10460;BME280;54412;51.206;6.888;2023-03-05T02:57:40;101262.69;;;7.08;65.92
10460;BME280;54412;51.206;6.888;2023-03-05T03:00:07;101268.69;;;7.13;66.36
10460;BME280;54412;51.206;6.888;2023-03-05T03:02:33;101261.19;;;6.98;66.49
10460;BME280;54412;51.206;6.888;2023-03-05T03:04:58;101264.03;;;6.89;66.99
10460;BME280;54412;51.206;6.888;2023-03-05T03:07:24;101262.28;;;6.90;67.01
10460;BME280;54412;51.206;6.888;2023-03-05T03:09:50;101258.50;;;7.01;66.44
10460;BME280;54412;51.206;6.888;2023-03-05T03:12:16;101248.03;;;7.00;66.62
10460;BME280;54412;51.206;6.888;2023-03-05T03:14:42;101247.78;;;7.09;66.12
10460;BME280;54412;51.206;6.888;2023-03-05T03:17:15;101242.00;;;6.98;66.79
10460;BME280;54412;51.206;6.888;2023-03-05T03:19:42;101236.69;;;6.99;66.31
10460;BME280;54412;51.206;6.888;2023-03-05T03:22:10;101242.00;;;7.30;65.76
10460;BME280;54412;51.206;6.888;2023-03-05T03:24:38;101236.63;;;7.02;66.52
10460;BME280;54412;51.206;6.888;2023-03-05T03:27:05;101235.59;;;7.08;66.80
10460;BME280;54412;51.206;6.888;2023-03-05T03:29:31;101237.44;;;7.04;66.77
10460;BME280;54412;51.206;6.888;2023-03-05T03:31:57;101235.06;;;6.95;67.04
10460;BME280;54412;51.206;6.888;2023-03-05T03:34:23;101230.63;;;7.29;65.84
10460;BME280;54412;51.206;6.888;2023-03-05T03:36:50;101226.25;;;6.98;67.01
10460;BME280;54412;51.206;6.888;2023-03-05T03:39:19;101232.75;;;6.82;67.78
10460;BME280;54412;51.206;6.888;2023-03-05T03:41:49;101227.78;;;7.06;67.08
10460;BME280;54412;51.206;6.888;2023-03-05T03:44:16;101215.44;;;7.10;66.54
10460;BME280;54412;51.206;6.888;2023-03-05T03:46:45;101213.53;;;7.15;66.31
10460;BME280;54412;51.206;6.888;2023-03-05T03:49:20;101213.28;;;6.92;66.42
10460;BME280;54412;51.206;6.888;2023-03-05T03:51:47;101211.53;;;6.92;66.98
10460;BME280;54412;51.206;6.888;2023-03-05T03:54:14;101205.66;;;6.83;67.31
10460;BME280;54412;51.206;6.888;2023-03-05T03:56:41;101205.56;;;6.86;67.31
10460;BME280;54412;51.206;6.888;2023-03-05T03:59:07;101205.47;;;6.90;67.19
10460;BME280;54412;51.206;6.888;2023-03-05T04:01:33;101203.63;;;6.94;66.85
10460;BME280;54412;51.206;6.888;2023-03-05T04:03:58;101191.38;;;6.94;66.55
10460;BME280;54412;51.206;6.888;2023-03-05T04:06:24;101196.88;;;6.85;66.62
10460;BME280;54412;51.206;6.888;2023-03-05T04:08:50;101195.56;;;7.01;66.05
10460;BME280;54412;51.206;6.888;2023-03-05T04:11:15;101198.81;;;7.09;65.34
10460;BME280;54412;51.206;6.888;2023-03-05T04:13:45;101192.59;;;6.81;65.98
10460;BME280;54412;51.206;6.888;2023-03-05T04:16:12;101189.06;;;6.82;66.32
10460;BME280;54412;51.206;6.888;2023-03-05T04:18:38;101188.91;;;6.88;65.70
10460;BME280;54412;51.206;6.888;2023-03-05T04:21:04;101186.84;;;7.01;65.45
10460;BME280;54412;51.206;6.888;2023-03-05T04:23:30;101186.94;;;6.96;65.62
10460;BME280;54412;51.206;6.888;2023-03-05T04:25:56;101188.97;;;6.87;65.61
10460;BME280;54412;51.206;6.888;2023-03-05T04:28:22;101184.59;;;6.86;66.05
10460;BME280;54412;51.206;6.888;2023-03-05T04:30:48;101184.47;;;6.58;67.03
10460;BME280;54412;51.206;6.888;2023-03-05T04:33:14;101172.13;;;6.95;65.89
10460;BME280;54412;51.206;6.888;2023-03-05T04:35:40;101169.88;;;6.80;66.19
10460;BME280;54412;51.206;6.888;2023-03-05T04:38:05;101162.53;;;6.94;65.82
10460;BME280;54412;51.206;6.888;2023-03-05T04:40:31;101160.03;;;6.56;66.97
10460;BME280;54412;51.206;6.888;2023-03-05T04:42:57;101157.59;;;6.82;66.22
10460;BME280;54412;51.206;6.888;2023-03-05T04:45:23;101159.06;;;6.60;67.12
10460;BME280;54412;51.206;6.888;2023-03-05T04:47:48;101162.50;;;6.62;67.07
10460;BME280;54412;51.206;6.888;2023-03-05T04:50:14;101157.22;;;6.64;67.29
10460;BME280;54412;51.206;6.888;2023-03-05T04:52:43;101163.56;;;6.87;66.47
10460;BME280;54412;51.206;6.888;2023-03-05T04:55:11;101156.19;;;6.71;66.92
10460;BME280;54412;51.206;6.888;2023-03-05T04:57:38;101161.19;;;6.80;66.42
10460;BME280;54412;51.206;6.888;2023-03-05T05:00:09;101155.03;;;6.81;66.97
10460;BME280;54412;51.206;6.888;2023-03-05T05:02:41;101154.34;;;6.74;67.01
10460;BME280;54412;51.206;6.888;2023-03-05T05:05:09;101149.94;;;6.75;66.60
10460;BME280;54412;51.206;6.888;2023-03-05T05:07:36;101141.81;;;6.85;66.74
10460;BME280;54412;51.206;6.888;2023-03-05T05:10:03;101151.53;;;6.80;66.54
10460;BME280;54412;51.206;6.888;2023-03-05T05:12:30;101147.25;;;6.78;66.62
10460;BME280;54412;51.206;6.888;2023-03-05T05:14:57;101147.63;;;6.95;66.05
10460;BME280;54412;51.206;6.888;2023-03-05T05:17:22;101142.03;;;7.08;65.70
10460;BME280;54412;51.206;6.888;2023-03-05T05:19:48;101134.91;;;6.81;66.21
10460;BME280;54412;51.206;6.888;2023-03-05T05:22:14;101138.34;;;6.83;66.32
10460;BME280;54412;51.206;6.888;2023-03-05T05:24:40;101140.56;;;6.98;66.37
10460;BME280;54412;51.206;6.888;2023-03-05T05:27:06;101136.47;;;6.88;66.08
10460;BME280;54412;51.206;6.888;2023-03-05T05:29:32;101134.25;;;6.73;66.49
10460;BME280;54412;51.206;6.888;2023-03-05T05:31:58;101135.41;;;6.63;67.23
10460;BME280;54412;51.206;6.888;2023-03-05T05:34:23;101126.19;;;6.81;66.70
10460;BME280;54412;51.206;6.888;2023-03-05T05:36:52;101131.66;;;6.72;67.09
10460;BME280;54412;51.206;6.888;2023-03-05T05:39:18;101125.25;;;6.82;66.23
10460;BME280;54412;51.206;6.888;2023-03-05T05:41:44;101119.63;;;6.65;66.74
10460;BME280;54412;51.206;6.888;2023-03-05T05:44:09;101116.53;;;6.83;66.60
10460;BME280;54412;51.206;6.888;2023-03-05T05:46:35;101115.78;;;6.78;66.62
10460;BME280;54412;51.206;6.888;2023-03-05T05:49:01;101115.59;;;6.85;66.24
10460;BME280;54412;51.206;6.888;2023-03-05T05:51:27;101120.44;;;6.67;66.86
10460;BME280;54412;51.206;6.888;2023-03-05T05:53:53;101127.50;;;6.65;67.24
10460;BME280;54412;51.206;6.888;2023-03-05T05:56:19;101127.09;;;6.78;67.13
10460;BME280;54412;51.206;6.888;2023-03-05T05:58:46;101119.25;;;6.78;66.26
10460;BME280;54412;51.206;6.888;2023-03-05T06:01:26;101121.41;;;6.63;67.19
10460;BME280;54412;51.206;6.888;2023-03-05T06:03:53;101118.75;;;6.64;67.07
10460;BME280;54412;51.206;6.888;2023-03-05T06:06:22;101110.88;;;6.64;67.14
10460;BME280;54412;51.206;6.888;2023-03-05T06:08:49;101114.63;;;6.56;67.35
10460;BME280;54412;51.206;6.888;2023-03-05T06:11:15;101112.50;;;6.70;67.29
10460;BME280;54412;51.206;6.888;2023-03-05T06:13:42;101110.44;;;6.81;66.44
10460;BME280;54412;51.206;6.888;2023-03-05T06:16:12;101116.88;;;6.69;66.48
10460;BME280;54412;51.206;6.888;2023-03-05T06:18:39;101111.91;;;6.59;67.19
10460;BME280;54412;51.206;6.888;2023-03-05T06:21:10;101121.19;;;6.72;67.04
10460;BME280;54412;51.206;6.888;2023-03-05T06:23:36;101110.53;;;6.78;66.84
10460;BME280;54412;51.206;6.888;2023-03-05T06:26:04;101126.50;;;6.69;66.81
10460;BME280;54412;51.206;6.888;2023-03-05T06:28:31;101118.72;;;6.66;67.13
10460;BME280;54412;51.206;6.888;2023-03-05T06:31:05;101118.56;;;6.72;66.78
10460;BME280;54412;51.206;6.888;2023-03-05T06:33:32;101112.50;;;6.70;66.96
10460;BME280;54412;51.206;6.888;2023-03-05T06:35:58;101108.22;;;6.67;66.67
10460;BME280;54412;51.206;6.888;2023-03-05T06:38:24;101113.31;;;6.72;66.81
10460;BME280;54412;51.206;6.888;2023-03-05T06:40:50;101110.63;;;7.05;66.08
10460;BME280;54412;51.206;6.888;2023-03-05T06:43:17;101113.13;;;7.10;65.64
10460;BME280;54412;51.206;6.888;2023-03-05T06:45:43;101114.16;;;7.04;65.86
10460;BME280;54412;51.206;6.888;2023-03-05T06:48:08;101115.41;;;7.22;65.06
10460;BME280;54412;51.206;6.888;2023-03-05T06:50:35;101114.94;;;7.08;65.37
10460;BME280;54412;51.206;6.888;2023-03-05T06:53:01;101116.53;;;7.13;64.24
10460;BME280;54412;51.206;6.888;2023-03-05T06:55:28;101116.31;;;7.21;63.68
10460;BME280;54412;51.206;6.888;2023-03-05T06:57:53;101124.56;;;7.38;63.97
10460;BME280;54412;51.206;6.888;2023-03-05T07:00:20;101109.72;;;7.37;63.62
10460;BME280;54412;51.206;6.888;2023-03-05T07:02:46;101117.75;;;7.31;63.13
10460;BME280;54412;51.206;6.888;2023-03-05T07:05:11;101114.66;;;7.48;62.41
10460;BME280;54412;51.206;6.888;2023-03-05T07:07:37;101113.16;;;7.39;62.76
10460;BME280;54412;51.206;6.888;2023-03-05T07:10:04;101109.69;;;7.38;61.91
10460;BME280;54412;51.206;6.888;2023-03-05T07:12:33;101105.56;;;7.30;62.64
10460;BME280;54412;51.206;6.888;2023-03-05T07:14:59;101104.38;;;7.40;62.94
10460;BME280;54412;51.206;6.888;2023-03-05T07:17:26;101103.16;;;7.52;62.60
10460;BME280;54412;51.206;6.888;2023-03-05T07:19:52;101099.13;;;7.40;62.76
10460;BME280;54412;51.206;6.888;2023-03-05T07:22:17;101096.69;;;7.34;63.09
10460;BME280;54412;51.206;6.888;2023-03-05T07:24:43;101091.16;;;7.43;63.09
10460;BME280;54412;51.206;6.888;2023-03-05T07:27:09;101090.84;;;7.24;63.78
10460;BME280;54412;51.206;6.888;2023-03-05T07:29:35;101093.38;;;7.27;63.83
10460;BME280;54412;51.206;6.888;2023-03-05T07:32:00;101094.41;;;7.22;63.69
10460;BME280;54412;51.206;6.888;2023-03-05T07:34:26;101096.28;;;7.48;63.45
10460;BME280;54412;51.206;6.888;2023-03-05T07:36:52;101090.75;;;7.27;63.81
10460;BME280;54412;51.206;6.888;2023-03-05T07:39:18;101092.88;;;7.15;63.90
10460;BME280;54412;51.206;6.888;2023-03-05T07:41:45;101093.13;;;7.36;63.83
10460;BME280;54412;51.206;6.888;2023-03-05T07:44:12;101079.13;;;7.36;63.59
10460;BME280;54412;51.206;6.888;2023-03-05T07:46:37;101081.13;;;7.28;63.54
10460;BME280;54412;51.206;6.888;2023-03-05T07:49:03;101081.66;;;7.10;64.65
10460;BME280;54412;51.206;6.888;2023-03-05T07:51:29;101083.97;;;7.20;64.14
10460;BME280;54412;51.206;6.888;2023-03-05T07:53:57;101089.28;;;7.47;63.27
10460;BME280;54412;51.206;6.888;2023-03-05T07:56:34;101085.16;;;7.10;64.24
10460;BME280;54412;51.206;6.888;2023-03-05T07:59:09;101078.47;;;6.99;65.05
10460;BME280;54412;51.206;6.888;2023-03-05T08:01:36;101081.91;;;7.31;64.63
10460;BME280;54412;51.206;6.888;2023-03-05T08:04:04;101074.25;;;7.24;65.06
10460;BME280;54412;51.206;6.888;2023-03-05T08:06:30;101075.94;;;7.26;64.92
10460;BME280;54412;51.206;6.888;2023-03-05T08:08:57;101072.44;;;7.26;64.82
10460;BME280;54412;51.206;6.888;2023-03-05T08:11:23;101066.06;;;7.34;64.92
10460;BME280;54412;51.206;6.888;2023-03-05T08:13:49;101071.66;;;7.52;64.26
10460;BME280;54412;51.206;6.888;2023-03-05T08:16:18;101069.31;;;7.43;64.11
10460;BME280;54412;51.206;6.888;2023-03-05T08:18:45;101064.88;;;7.15;64.91
10460;BME280;54412;51.206;6.888;2023-03-05T08:21:33;101072.56;;;6.92;65.57
10460;BME280;54412;51.206;6.888;2023-03-05T08:24:03;101058.38;;;6.69;66.59
10460;BME280;54412;51.206;6.888;2023-03-05T08:26:32;101049.31;;;7.09;65.60
10460;BME280;54412;51.206;6.888;2023-03-05T08:28:58;101057.41;;;7.31;65.16
10460;BME280;54412;51.206;6.888;2023-03-05T08:31:26;101053.47;;;7.16;64.99
10460;BME280;54412;51.206;6.888;2023-03-05T08:33:54;101051.13;;;7.07;65.40
10460;BME280;54412;51.206;6.888;2023-03-05T08:36:20;101049.28;;;7.40;64.58
10460;BME280;54412;51.206;6.888;2023-03-05T08:38:46;101045.56;;;7.18;64.99
10460;BME280;54412;51.206;6.888;2023-03-05T08:41:15;101041.06;;;7.21;65.19
10460;BME280;54412;51.206;6.888;2023-03-05T08:43:41;101041.72;;;7.29;65.20
10460;BME280;54412;51.206;6.888;2023-03-05T08:46:09;101034.28;;;7.16;65.11
10460;BME280;54412;51.206;6.888;2023-03-05T08:48:36;101040.91;;;6.98;65.54
10460;BME280;54412;51.206;6.888;2023-03-05T08:51:17;101033.75;;;7.32;65.19
10460;BME280;54412;51.206;6.888;2023-03-05T08:53:45;101033.59;;;7.66;63.89
10460;BME280;54412;51.206;6.888;2023-03-05T08:56:11;101032.19;;;7.55;63.67
10460;BME280;54412;51.206;6.888;2023-03-05T08:58:38;101033.66;;;7.63;63.62
10460;BME280;54412;51.206;6.888;2023-03-05T09:01:04;101037.13;;;7.36;64.59
10460;BME280;54412;51.206;6.888;2023-03-05T09:03:30;101027.88;;;7.54;64.56
10460;BME280;54412;51.206;6.888;2023-03-05T09:06:05;101026.75;;;7.33;64.51
10460;BME280;54412;51.206;6.888;2023-03-05T09:08:32;101030.41;;;7.27;65.48
10460;BME280;54412;51.206;6.888;2023-03-05T09:11:02;101023.13;;;7.37;65.80
10460;BME280;54412;51.206;6.888;2023-03-05T09:13:28;101027.84;;;7.26;66.74
10460;BME280;54412;51.206;6.888;2023-03-05T09:15:57;101016.69;;;7.47;66.53
10460;BME280;54412;51.206;6.888;2023-03-05T09:18:23;101017.84;;;7.65;66.14
10460;BME280;54412;51.206;6.888;2023-03-05T09:20:48;101015.53;;;7.56;65.90
10460;BME280;54412;51.206;6.888;2023-03-05T09:23:14;101010.56;;;7.47;65.92
10460;BME280;54412;51.206;6.888;2023-03-05T09:25:42;101015.53;;;7.28;66.85
10460;BME280;54412;51.206;6.888;2023-03-05T09:28:08;101012.41;;;7.71;65.51
10460;BME280;54412;51.206;6.888;2023-03-05T09:30:34;101007.47;;;7.62;65.33
10460;BME280;54412;51.206;6.888;2023-03-05T09:33:03;101008.56;;;7.81;63.73
10460;BME280;54412;51.206;6.888;2023-03-05T09:35:34;101003.47;;;7.50;64.68
10460;BME280;54412;51.206;6.888;2023-03-05T09:38:00;101001.22;;;7.38;64.92
10460;BME280;54412;51.206;6.888;2023-03-05T09:40:36;101004.19;;;7.27;63.61
10460;BME280;54412;51.206;6.888;2023-03-05T09:43:33;100995.50;;;7.25;64.98
10460;BME280;54412;51.206;6.888;2023-03-05T09:46:27;100997.50;;;7.45;65.04
10460;BME280;54412;51.206;6.888;2023-03-05T09:49:03;100999.06;;;7.51;65.68
10460;BME280;54412;51.206;6.888;2023-03-05T09:51:38;100989.25;;;7.57;66.38
10460;BME280;54412;51.206;6.888;2023-03-05T09:54:36;100994.22;;;7.65;65.94
10460;BME280;54412;51.206;6.888;2023-03-05T09:57:11;100991.28;;;7.75;65.53
10460;BME280;54412;51.206;6.888;2023-03-05T09:59:52;100984.69;;;7.88;64.51
10460;BME280;54412;51.206;6.888;2023-03-05T10:02:29;100982.03;;;7.64;65.55
10460;BME280;54412;51.206;6.888;2023-03-05T10:05:12;100984.41;;;7.71;65.07
10460;BME280;54412;51.206;6.888;2023-03-05T10:07:52;100985.59;;;7.61;65.22
10460;BME280;54412;51.206;6.888;2023-03-05T10:10:27;100986.81;;;7.77;65.15
10460;BME280;54412;51.206;6.888;2023-03-05T10:13:21;100982.22;;;7.58;65.30
10460;BME280;54412;51.206;6.888;2023-03-05T10:16:19;100978.00;;;7.54;65.64
10460;BME280;54412;51.206;6.888;2023-03-05T10:19:08;100978.00;;;7.80;64.52
10460;BME280;54412;51.206;6.888;2023-03-05T10:21:57;100971.47;;;7.65;64.77
10460;BME280;54412;51.206;6.888;2023-03-05T10:24:59;100967.84;;;7.69;64.44
10460;BME280;54412;51.206;6.888;2023-03-05T10:27:52;100963.38;;;7.45;65.81
10460;BME280;54412;51.206;6.888;2023-03-05T10:33:24;100952.00;;;7.46;65.79
10460;BME280;54412;51.206;6.888;2023-03-05T10:36:28;100953.78;;;7.70;65.66
10460;BME280;54412;51.206;6.888;2023-03-05T10:42:43;100947.03;;;7.89;64.59
10460;BME280;54412;51.206;6.888;2023-03-05T10:45:20;100945.16;;;7.93;64.22
10460;BME280;54412;51.206;6.888;2023-03-05T10:47:54;100943.56;;;8.13;63.46
10460;BME280;54412;51.206;6.888;2023-03-05T10:50:29;100935.78;;;8.10;63.45
10460;BME280;54412;51.206;6.888;2023-03-05T10:55:39;100937.06;;;8.25;62.91
10460;BME280;54412;51.206;6.888;2023-03-05T10:58:14;100935.47;;;8.19;62.72
10460;BME280;54412;51.206;6.888;2023-03-05T11:03:57;100930.59;;;8.33;64.28
10460;BME280;54412;51.206;6.888;2023-03-05T11:09:29;100919.56;;;8.24;64.17
10460;BME280;54412;51.206;6.888;2023-03-05T11:14:46;100910.38;;;8.35;63.33
10460;BME280;54412;51.206;6.888;2023-03-05T11:23:18;100904.50;;;8.75;61.55
10460;BME280;54412;51.206;6.888;2023-03-05T11:25:54;100900.34;;;8.47;61.38
10460;BME280;54412;51.206;6.888;2023-03-05T11:31:18;100890.97;;;8.63;61.08
10460;BME280;54412;51.206;6.888;2023-03-05T11:34:06;100882.53;;;8.76;60.11
10460;BME280;54412;51.206;6.888;2023-03-05T11:36:41;100884.94;;;8.82;60.29
10460;BME280;54412;51.206;6.888;2023-03-05T11:42:12;100885.31;;;9.16;58.29
10460;BME280;54412;51.206;6.888;2023-03-05T11:44:53;100887.06;;;8.94;59.21
10460;BME280;54412;51.206;6.888;2023-03-05T11:47:38;100884.31;;;8.76;59.31
10460;BME280;54412;51.206;6.888;2023-03-05T11:50:21;100883.41;;;8.54;59.22
10460;BME280;54412;51.206;6.888;2023-03-05T11:52:56;100871.34;;;8.48;59.88
10460;BME280;54412;51.206;6.888;2023-03-05T12:00:38;100858.69;;;8.36;60.24
10460;BME280;54412;51.206;6.888;2023-03-05T12:03:34;100865.59;;;8.14;60.04
10460;BME280;54412;51.206;6.888;2023-03-05T12:06:28;100850.63;;;7.93;61.09
10460;BME280;54412;51.206;6.888;2023-03-05T12:09:05;100853.00;;;8.23;60.89
10460;BME280;54412;51.206;6.888;2023-03-05T12:11:35;100848.38;;;8.30;60.41
10460;BME280;54412;51.206;6.888;2023-03-05T12:16:52;100830.72;;;8.33;60.22
10460;BME280;54412;51.206;6.888;2023-03-05T12:19:57;100823.38;;;8.43;60.09
10460;BME280;54412;51.206;6.888;2023-03-05T12:22:36;100830.41;;;8.64;59.73
10460;BME280;54412;51.206;6.888;2023-03-05T12:25:32;100831.22;;;8.66;59.46
10460;BME280;54412;51.206;6.888;2023-03-05T12:27:59;100816.97;;;8.72;58.95
10460;BME280;54412;51.206;6.888;2023-03-05T12:33:41;100810.56;;;8.79;59.60
10460;BME280;54412;51.206;6.888;2023-03-05T12:38:43;100809.97;;;8.49;59.58
10460;BME280;54412;51.206;6.888;2023-03-05T12:47:17;100800.91;;;8.58;59.17
10460;BME280;54412;51.206;6.888;2023-03-05T12:49:45;100790.09;;;8.65;58.99
10460;BME280;54412;51.206;6.888;2023-03-05T12:52:32;100784.97;;;8.39;58.71
10460;BME280;54412;51.206;6.888;2023-03-05T12:55:35;100781.13;;;8.48;59.39
10460;BME280;54412;51.206;6.888;2023-03-05T13:03:39;100764.44;;;8.49;60.28
10460;BME280;54412;51.206;6.888;2023-03-05T13:06:27;100755.94;;;8.42;60.88
10460;BME280;54412;51.206;6.888;2023-03-05T13:09:14;100749.16;;;8.58;60.18
10460;BME280;54412;51.206;6.888;2023-03-05T13:11:45;100745.25;;;8.47;60.64
10460;BME280;54412;51.206;6.888;2023-03-05T13:14:31;100738.09;;;8.50;59.49
10460;BME280;54412;51.206;6.888;2023-03-05T13:16:59;100743.28;;;8.52;59.57
10460;BME280;54412;51.206;6.888;2023-03-05T13:19:26;100734.81;;;8.45;59.35
10460;BME280;54412;51.206;6.888;2023-03-05T13:22:11;100744.66;;;8.40;59.41
10460;BME280;54412;51.206;6.888;2023-03-05T13:24:36;100733.03;;;8.22;59.62
10460;BME280;54412;51.206;6.888;2023-03-05T13:27:23;100732.19;;;8.22;59.82
10460;BME280;54412;51.206;6.888;2023-03-05T13:29:51;100728.84;;;8.17;60.25
10460;BME280;54412;51.206;6.888;2023-03-05T13:32:31;100730.09;;;8.53;58.77
10460;BME280;54412;51.206;6.888;2023-03-05T13:34:59;100717.50;;;8.39;60.11
10460;BME280;54412;51.206;6.888;2023-03-05T13:37:30;100721.03;;;8.38;59.64
10460;BME280;54412;51.206;6.888;2023-03-05T13:40:00;100711.44;;;8.37;59.16
10460;BME280;54412;51.206;6.888;2023-03-05T13:42:32;100720.72;;;8.46;59.14
10460;BME280;54412;51.206;6.888;2023-03-05T13:45:39;100717.50;;;8.61;58.19
10460;BME280;54412;51.206;6.888;2023-03-05T13:48:06;100714.97;;;8.58;57.82
10460;BME280;54412;51.206;6.888;2023-03-05T13:50:37;100709.34;;;8.67;57.23
10460;BME280;54412;51.206;6.888;2023-03-05T13:53:22;100702.81;;;8.56;56.73
10460;BME280;54412;51.206;6.888;2023-03-05T13:55:51;100698.44;;;8.34;57.06
10460;BME280;54412;51.206;6.888;2023-03-05T13:58:49;100695.81;;;8.34;57.33
10460;BME280;54412;51.206;6.888;2023-03-05T14:01:34;100692.91;;;8.40;57.12
10460;BME280;54412;51.206;6.888;2023-03-05T14:06:49;100693.78;;;8.63;55.62
10460;BME280;54412;51.206;6.888;2023-03-05T14:09:30;100691.38;;;8.57;55.23
10460;BME280;54412;51.206;6.888;2023-03-05T14:11:59;100682.91;;;8.50;54.58
10460;BME280;54412;51.206;6.888;2023-03-05T14:14:28;100683.94;;;8.46;54.69
10460;BME280;54412;51.206;6.888;2023-03-05T14:16:54;100671.22;;;8.35;55.63
10460;BME280;54412;51.206;6.888;2023-03-05T14:19:38;100672.16;;;8.34;55.22
10460;BME280;54412;51.206;6.888;2023-03-05T14:22:05;100675.38;;;8.41;55.58